Sugar Grove Lake, Ohio
Current Conditions -  °F | °C
As of 2:53 PM on Thursday 18 Dec 2014 (Local Time) from KMNN Reporting Station
Overcast Overcast  
Wind Chill: 20°   Ceiling: 1700
Heat Index: 28°   Visibility: 8mi
Dew Point: 21°   Wind: 8mph
Humidity: 75%   Direction: 260°W
Pressure: 30.2"   Gusts: NA
Location:  40.712°N, 82.796°W
Report Text: KMNN 181953Z AUTO 26007KT 8SM OVC017 M02/M06 A3020 RMK AO2 SLP238 T10221061 TSNO
Loading
Personal Weather Stations






























Interactive Weather Map New forecast layout! Learn more

10-Day Weather Forecast

Advertisements
Track Severe Weather on mobile